createdAt,value
2022-11-19T00:02:10.139Z,98962.50
2022-11-19T00:04:37.499Z,98962.47
2022-11-19T00:07:05.981Z,98976.34
2022-11-19T00:09:34.545Z,98967.72
2022-11-19T00:12:20.504Z,98966.81
2022-11-19T00:14:48.897Z,98959.06
2022-11-19T00:17:16.305Z,98959.88
2022-11-19T00:19:43.658Z,98961.66
2022-11-19T00:22:11.787Z,98970.31
2022-11-19T00:24:42.147Z,98975.47
2022-11-19T00:27:10.978Z,98975.47
2022-11-19T00:29:39.701Z,98963.34
2022-11-19T00:32:08.199Z,98979.84
2022-11-19T00:34:35.545Z,98971.16
2022-11-19T00:37:03.100Z,98980.66
2022-11-19T00:39:30.431Z,98977.16
2022-11-19T00:41:58.146Z,98976.31
2022-11-19T00:44:33.943Z,98975.44
2022-11-19T00:47:05.018Z,98984.09
2022-11-19T00:49:33.307Z,98988.41
2022-11-19T00:52:00.705Z,98989.31
2022-11-19T00:54:28.241Z,98998.81
2022-11-19T00:56:55.758Z,98995.34
2022-11-19T00:59:22.866Z,98992.78
2022-11-19T01:01:51.667Z,98996.22
2022-11-19T01:04:20.038Z,99001.44
2022-11-19T01:06:49.467Z,99001.44
2022-11-19T01:09:17.246Z,99004.88
2022-11-19T01:11:44.907Z,98995.38
2022-11-19T01:14:12.706Z,98996.22
2022-11-19T01:16:41.738Z,99008.34
2022-11-19T01:19:11.547Z,99003.16
2022-11-19T01:21:39.181Z,99008.34
2022-11-19T01:24:07.107Z,99017.03
2022-11-19T01:26:34.834Z,99003.22
2022-11-19T01:29:03.421Z,98999.75
2022-11-19T01:31:31.158Z,99000.59
2022-11-19T01:34:01.338Z,99016.16
2022-11-19T01:36:30.190Z,99016.19
2022-11-19T01:38:58.886Z,99011.84
2022-11-19T01:41:33.380Z,99018.75
2022-11-19T01:44:06.658Z,99027.41
2022-11-19T01:46:35.551Z,99027.47
2022-11-19T01:49:10.989Z,99032.66
2022-11-19T01:51:48.066Z,99024.03
2022-11-19T01:54:43.418Z,99017.06
2022-11-19T01:57:14.713Z,99009.31
2022-11-19T01:59:43.785Z,99018.84
2022-11-19T02:02:13.079Z,99011.88
2022-11-19T02:04:41.306Z,99021.38
2022-11-19T02:07:12.145Z,99019.63
2022-11-19T02:09:41.522Z,99023.16
2022-11-19T02:12:50.589Z,99024.00
2022-11-19T02:15:29.547Z,99026.59
2022-11-19T02:18:30.258Z,99015.38
2022-11-19T02:21:40.819Z,99017.06
2022-11-19T02:24:44.746Z,99017.91
2022-11-19T02:27:29.235Z,99010.13
2022-11-19T02:30:21.283Z,99023.97
2022-11-19T02:32:59.178Z,99021.38
2022-11-19T02:35:50.077Z,99023.97
2022-11-19T02:38:41.867Z,99024.81
2022-11-19T02:41:37.981Z,99026.56
2022-11-19T02:45:19.147Z,99031.78
2022-11-19T02:48:00.906Z,99033.53
2022-11-19T02:50:42.079Z,99024.88
2022-11-19T02:53:11.189Z,99027.44
2022-11-19T02:55:39.859Z,99037.84
2022-11-19T02:58:37.468Z,99033.53
2022-11-19T03:01:26.833Z,99033.50
2022-11-19T03:04:14.867Z,99038.72
2022-11-19T03:06:42.140Z,99043.00
2022-11-19T03:09:09.834Z,99043.00
2022-11-19T03:11:37.147Z,99048.19
2022-11-19T03:14:48.619Z,99053.44
2022-11-19T03:17:32.388Z,99071.56
2022-11-19T03:20:15.500Z,99068.97
2022-11-19T03:22:58.638Z,99082.81
2022-11-19T03:25:28.067Z,99094.03
2022-11-19T03:28:02.355Z,99096.66
2022-11-19T03:30:31.763Z,99092.31
2022-11-19T03:33:07.146Z,99088.88
2022-11-19T03:35:43.738Z,99097.50
2022-11-19T03:38:17.178Z,99103.59
2022-11-19T03:40:53.058Z,99107.91
2022-11-19T03:43:24.699Z,99121.72
2022-11-19T03:45:54.706Z,99121.72
2022-11-19T03:48:23.786Z,99119.16
2022-11-19T03:50:56.946Z,99119.13
2022-11-19T03:53:24.786Z,99127.78
2022-11-19T03:56:07.268Z,99123.44
2022-11-19T03:58:42.920Z,99130.38
2022-11-19T04:01:16.662Z,99127.78
2022-11-19T04:04:03.679Z,99132.97
2022-11-19T04:06:31.206Z,99131.25
2022-11-19T04:08:58.688Z,99126.94
2022-11-19T04:13:51.999Z,99131.25
2022-11-19T04:16:19.479Z,99135.56
2022-11-19T04:18:47.018Z,99128.66
2022-11-19T04:21:14.458Z,99126.91
2022-11-19T04:23:45.058Z,99133.88
2022-11-19T04:26:18.658Z,99132.97
2022-11-19T04:28:45.938Z,99132.09
2022-11-19T04:31:17.653Z,99140.75
2022-11-19T04:33:45.580Z,99139.91
2022-11-19T04:36:12.939Z,99145.94
2022-11-19T04:38:40.387Z,99152.88
2022-11-19T04:41:08.980Z,99153.72
2022-11-19T04:43:36.339Z,99153.72
2022-11-19T04:46:04.937Z,99150.28
2022-11-19T04:48:32.266Z,99145.94
2022-11-19T04:50:59.699Z,99152.88
2022-11-19T04:53:28.258Z,99152.00
2022-11-19T04:55:55.657Z,99155.44
2022-11-19T04:58:23.219Z,99161.50
2022-11-19T05:00:51.666Z,99158.03
2022-11-19T05:03:19.111Z,99159.78
2022-11-19T05:05:47.660Z,99162.38
2022-11-19T05:08:14.986Z,99164.06
2022-11-19T05:10:44.786Z,99166.66
2022-11-19T05:13:13.347Z,99172.75
2022-11-19T05:15:40.499Z,99172.75
2022-11-19T05:18:08.987Z,99168.41
2022-11-19T05:20:36.467Z,99172.75
2022-11-19T05:23:03.867Z,99181.38
2022-11-19T05:25:32.384Z,99182.25
2022-11-19T05:28:01.947Z,99187.44
2022-11-19T05:30:29.418Z,99185.72
2022-11-19T05:32:58.786Z,99189.16
2022-11-19T05:35:26.298Z,99190.03
2022-11-19T05:37:55.700Z,99193.50
2022-11-19T05:40:23.498Z,99194.34
2022-11-19T05:42:51.738Z,99200.41
2022-11-19T05:45:20.226Z,99199.53
2022-11-19T05:47:48.927Z,99201.25
2022-11-19T05:50:17.698Z,99207.31
2022-11-19T05:52:46.419Z,99215.97
2022-11-19T05:55:21.156Z,99216.84
2022-11-19T05:57:48.988Z,99220.31
2022-11-19T06:00:18.460Z,99222.00
2022-11-19T06:02:45.800Z,99215.09
2022-11-19T06:05:13.099Z,99222.88
2022-11-19T06:07:40.669Z,99234.94
2022-11-19T06:10:14.778Z,99234.94
2022-11-19T06:12:45.933Z,99233.22
2022-11-19T06:15:15.298Z,99234.09
2022-11-19T06:17:43.817Z,99245.34
2022-11-19T06:20:11.579Z,99253.97
2022-11-19T06:22:40.386Z,99259.16
2022-11-19T06:25:08.271Z,99252.25
2022-11-19T06:27:35.739Z,99258.28
2022-11-19T06:30:03.629Z,99260.00
2022-11-19T06:32:30.991Z,99264.34
2022-11-19T06:34:58.502Z,99279.03
2022-11-19T06:37:26.018Z,99273.81
2022-11-19T06:39:54.547Z,99272.94
2022-11-19T06:42:37.720Z,99277.25
2022-11-19T06:45:11.418Z,99277.22
2022-11-19T06:47:40.498Z,99287.59
2022-11-19T06:50:10.629Z,99283.25
2022-11-19T06:52:38.037Z,99286.72
2022-11-19T06:55:06.831Z,99290.13
2022-11-19T06:57:34.259Z,99288.38
2022-11-19T07:00:08.419Z,99290.91
2022-11-19T07:02:35.859Z,99293.53
2022-11-19T07:05:02.861Z,99297.81
2022-11-19T07:07:30.439Z,99296.13
2022-11-19T07:09:58.779Z,99309.06
2022-11-19T07:12:27.669Z,99303.03
2022-11-19T07:14:59.736Z,99304.81
2022-11-19T07:17:31.308Z,99309.03
2022-11-19T07:19:58.819Z,99311.66
2022-11-19T07:22:38.538Z,99306.44
2022-11-19T07:25:06.507Z,99320.28
2022-11-19T07:27:34.019Z,99317.69
2022-11-19T07:30:04.506Z,99314.25
2022-11-19T07:32:33.261Z,99309.97
2022-11-19T07:35:02.667Z,99304.81
2022-11-19T07:37:29.907Z,99310.91
2022-11-19T07:39:57.458Z,99315.28
2022-11-19T07:42:43.623Z,99312.75
2022-11-19T07:45:22.304Z,99309.31
2022-11-19T07:47:50.019Z,99322.31
2022-11-19T07:50:18.210Z,99316.25
2022-11-19T07:52:45.579Z,99311.94
2022-11-19T07:55:12.906Z,99318.03
2022-11-19T07:57:40.403Z,99328.38
2022-11-19T08:00:08.907Z,99318.00
2022-11-19T08:02:37.107Z,99321.47
2022-11-19T08:05:13.059Z,99324.06
2022-11-19T08:07:41.818Z,99320.56
2022-11-19T08:10:10.741Z,99326.69
2022-11-19T08:12:38.103Z,99334.44
2022-11-19T08:15:05.993Z,99319.72
2022-11-19T08:17:52.106Z,99325.75
2022-11-19T08:20:20.760Z,99326.59
2022-11-19T08:22:49.219Z,99322.25
2022-11-19T08:25:16.778Z,99325.72
2022-11-19T08:27:50.259Z,99326.56
2022-11-19T08:30:17.498Z,99316.97
2022-11-19T08:32:44.667Z,99314.28
2022-11-19T08:35:11.739Z,99305.28
2022-11-19T08:37:39.107Z,99297.09
2022-11-19T08:40:07.029Z,99290.28
2022-11-19T08:42:52.942Z,99286.34
2022-11-19T08:45:22.538Z,99288.63
2022-11-19T08:47:49.867Z,99282.44
2022-11-19T08:50:17.386Z,99290.25
2022-11-19T08:52:44.758Z,99292.09
2022-11-19T08:55:11.728Z,99298.97
2022-11-19T08:57:40.166Z,99311.41
2022-11-19T09:00:08.320Z,99308.88
2022-11-19T09:02:35.759Z,99315.00
2022-11-19T09:05:03.158Z,99317.41
2022-11-19T09:07:31.584Z,99315.00
2022-11-19T09:09:58.686Z,99316.28
2022-11-19T09:12:25.730Z,99319.91
2022-11-19T09:14:52.877Z,99317.81
2022-11-19T09:17:20.398Z,99324.03
2022-11-19T09:19:48.441Z,99322.81
2022-11-19T09:22:15.798Z,99330.13
2022-11-19T09:24:42.838Z,99329.53
2022-11-19T09:27:10.209Z,99331.72
2022-11-19T09:29:37.647Z,99340.16
2022-11-19T09:32:05.126Z,99341.94
2022-11-19T09:34:32.638Z,99337.75
2022-11-19T09:37:00.126Z,99345.09
2022-11-19T09:39:27.519Z,99345.50
2022-11-19T09:42:11.799Z,99352.31
2022-11-19T09:45:00.959Z,99363.94
2022-11-19T09:47:46.280Z,99339.56
2022-11-19T09:50:31.606Z,99338.81
2022-11-19T09:53:02.918Z,99352.09
2022-11-19T09:55:35.085Z,99343.59
2022-11-19T09:58:06.416Z,99345.38
2022-11-19T10:00:34.728Z,99348.81
2022-11-19T10:03:11.752Z,99348.81
2022-11-19T10:06:07.038Z,99348.84
2022-11-19T10:08:55.850Z,99343.69
2022-11-19T10:11:38.012Z,99339.41
2022-11-19T10:14:28.002Z,99344.63
2022-11-19T10:17:04.641Z,99351.81
2022-11-19T10:20:04.280Z,99343.38
2022-11-19T10:22:40.286Z,99351.28
2022-11-19T10:25:23.477Z,99351.44
2022-11-19T10:27:57.598Z,99357.63
2022-11-19T10:30:27.285Z,99353.31
2022-11-19T10:33:01.922Z,99356.00
2022-11-19T10:35:36.330Z,99356.00
2022-11-19T10:38:07.958Z,99355.03
2022-11-19T10:41:14.492Z,99348.13
2022-11-19T10:44:07.798Z,99341.22
2022-11-19T10:46:37.037Z,99343.91
2022-11-19T10:49:11.048Z,99342.13
2022-11-19T10:51:41.765Z,99347.31
2022-11-19T10:54:30.694Z,99348.25
2022-11-19T10:57:00.757Z,99342.19
2022-11-19T10:59:33.240Z,99340.47
2022-11-19T11:02:46.046Z,99332.72
2022-11-19T11:05:17.077Z,99331.84
2022-11-19T11:07:54.530Z,99331.00
2022-11-19T11:10:31.404Z,99342.22
2022-11-19T11:13:25.278Z,99344.84
2022-11-19T11:15:54.523Z,99339.63
2022-11-19T11:18:27.729Z,99340.50
2022-11-19T11:21:00.742Z,99337.91
2022-11-19T11:23:33.572Z,99333.56
2022-11-19T11:26:10.959Z,99337.00
2022-11-19T11:28:58.486Z,99330.91
2022-11-19T11:31:39.807Z,99336.16
2022-11-19T11:34:36.038Z,99336.16
2022-11-19T11:37:10.557Z,99331.84
2022-11-19T11:39:46.602Z,99332.69
2022-11-19T11:42:21.958Z,99329.19
2022-11-19T11:44:59.758Z,99330.91
2022-11-19T11:47:33.848Z,99330.88
2022-11-19T11:50:21.918Z,99334.38
2022-11-19T11:52:54.841Z,99326.63
2022-11-19T11:55:26.000Z,99333.56
2022-11-19T11:58:05.171Z,99329.19
2022-11-19T12:00:46.958Z,99330.88
2022-11-19T12:03:22.730Z,99335.16
2022-11-19T12:06:19.358Z,99331.69
2022-11-19T12:09:16.304Z,99331.72
2022-11-19T12:12:26.471Z,99337.00
2022-11-19T12:15:27.066Z,99333.56
2022-11-19T12:18:22.858Z,99336.13
2022-11-19T12:21:48.782Z,99329.16
2022-11-19T12:24:34.899Z,99330.06
2022-11-19T12:27:05.227Z,99324.00
2022-11-19T12:29:53.433Z,99335.25
2022-11-19T12:32:50.039Z,99330.88
2022-11-19T12:35:31.881Z,99333.44
2022-11-19T12:38:26.257Z,99330.88
2022-11-19T12:41:08.238Z,99333.44
2022-11-19T12:43:51.758Z,99343.88
2022-11-19T12:46:39.317Z,99339.56
2022-11-19T12:49:23.778Z,99337.78
2022-11-19T12:52:28.824Z,99345.63
2022-11-19T12:55:15.083Z,99348.19
2022-11-19T12:58:01.932Z,99349.06
2022-11-19T13:00:40.812Z,99342.97
2022-11-19T13:03:21.879Z,99341.31
2022-11-19T13:06:26.118Z,99339.63
2022-11-19T13:09:07.638Z,99327.47
2022-11-19T13:11:45.839Z,99333.53
2022-11-19T13:14:41.878Z,99323.13
2022-11-19T13:17:20.478Z,99329.22
2022-11-19T13:19:54.166Z,99332.63
2022-11-19T13:22:34.295Z,99335.25
2022-11-19T13:25:50.198Z,99330.06
2022-11-19T13:28:36.361Z,99331.78
2022-11-19T13:31:13.797Z,99331.72
2022-11-19T13:33:50.398Z,99331.66
2022-11-19T13:36:44.758Z,99329.09
2022-11-19T13:39:23.231Z,99330.72
2022-11-19T13:42:12.247Z,99335.22
2022-11-19T13:44:46.157Z,99333.56
2022-11-19T13:47:34.844Z,99334.41
2022-11-19T13:50:12.206Z,99326.66
2022-11-19T13:52:46.920Z,99330.09
2022-11-19T13:55:35.479Z,99328.34
2022-11-19T13:58:27.238Z,99326.56
2022-11-19T14:01:10.140Z,99330.03
2022-11-19T14:04:04.531Z,99333.47
2022-11-19T14:06:56.283Z,99328.94
2022-11-19T14:09:36.838Z,99330.59
2022-11-19T14:12:29.367Z,99332.84
2022-11-19T14:15:51.879Z,99326.81
2022-11-19T14:18:48.966Z,99326.78
2022-11-19T14:21:43.233Z,99334.63
2022-11-19T14:24:45.320Z,99332.19
2022-11-19T14:27:18.718Z,99341.97
2022-11-19T14:29:46.687Z,99350.72
2022-11-19T14:32:13.840Z,99342.94
2022-11-19T14:35:09.958Z,99334.13
2022-11-19T14:37:56.118Z,99348.97
2022-11-19T14:40:31.159Z,99349.03
2022-11-19T14:43:20.424Z,99352.56
2022-11-19T14:46:14.318Z,99362.16
2022-11-19T14:48:42.478Z,99354.34
2022-11-19T14:51:15.367Z,99350.88
2022-11-19T14:53:56.131Z,99343.09
2022-11-19T14:56:27.608Z,99349.13
2022-11-19T14:59:10.337Z,99358.63
2022-11-19T15:02:07.491Z,99361.22
2022-11-19T15:04:44.899Z,99353.44
2022-11-19T15:07:35.462Z,99351.69
2022-11-19T15:10:11.599Z,99352.53
2022-11-19T15:13:04.299Z,99349.91
2022-11-19T15:15:39.968Z,99348.19
2022-11-19T15:18:54.007Z,99348.19
2022-11-19T15:21:30.358Z,99351.63
2022-11-19T15:24:25.998Z,99343.81
2022-11-19T15:27:25.718Z,99332.53
2022-11-19T15:30:20.609Z,99336.88
2022-11-19T15:33:13.851Z,99333.38
2022-11-19T15:36:00.326Z,99324.75
2022-11-19T15:38:42.878Z,99331.69
2022-11-19T15:41:17.646Z,99336.84
2022-11-19T15:43:52.077Z,99330.78
2022-11-19T15:46:30.592Z,99340.22
2022-11-19T15:49:19.052Z,99336.69
2022-11-19T15:52:00.238Z,99340.19
2022-11-19T15:54:30.078Z,99333.25
2022-11-19T15:57:23.978Z,99332.34
2022-11-19T16:00:03.889Z,99340.13
2022-11-19T16:02:35.280Z,99342.69
2022-11-19T16:05:06.177Z,99350.50
2022-11-19T16:07:36.173Z,99343.63
2022-11-19T16:10:08.216Z,99345.28
2022-11-19T16:13:15.461Z,99342.63
2022-11-19T16:16:18.959Z,99333.91
2022-11-19T16:18:52.927Z,99352.03
2022-11-19T16:21:27.248Z,99342.50
2022-11-19T16:24:17.358Z,99352.84
2022-11-19T16:26:45.368Z,99346.75
2022-11-19T16:29:36.518Z,99343.22
2022-11-19T16:32:09.440Z,99347.53
2022-11-19T16:34:39.519Z,99353.56
2022-11-19T16:37:07.172Z,99341.47
2022-11-19T16:39:34.927Z,99342.25
2022-11-19T16:42:18.007Z,99353.47
2022-11-19T16:44:54.407Z,99334.47
2022-11-19T16:47:40.559Z,99342.16
2022-11-19T16:50:42.385Z,99339.56
2022-11-19T16:53:47.250Z,99341.22
2022-11-19T16:56:17.038Z,99339.50
2022-11-19T16:58:46.878Z,99337.78
2022-11-19T17:01:18.404Z,99343.72
2022-11-19T17:03:46.019Z,99332.50
2022-11-19T17:06:26.085Z,99330.75
2022-11-19T17:09:01.329Z,99330.75
2022-11-19T17:12:10.409Z,99329.03
2022-11-19T17:14:47.330Z,99336.75
2022-11-19T17:17:35.580Z,99328.97
2022-11-19T17:20:24.286Z,99332.44
2022-11-19T17:22:51.930Z,99328.94
2022-11-19T17:25:20.159Z,99327.22
2022-11-19T17:27:53.608Z,99331.59
2022-11-19T17:30:31.517Z,99322.16
2022-11-19T17:33:05.686Z,99322.16
2022-11-19T17:35:52.000Z,99323.88
2022-11-19T17:38:31.598Z,99323.94
2022-11-19T17:41:01.007Z,99320.44
2022-11-19T17:43:53.519Z,99332.44
2022-11-19T17:46:24.401Z,99325.53
2022-11-19T17:48:53.650Z,99335.88
2022-11-19T17:51:23.638Z,99329.00
2022-11-19T17:53:52.738Z,99339.31
2022-11-19T17:56:27.359Z,99337.56
2022-11-19T17:58:56.159Z,99340.16
2022-11-19T18:01:23.973Z,99346.13
2022-11-19T18:03:51.606Z,99340.94
2022-11-19T18:06:20.059Z,99338.38
2022-11-19T18:08:50.967Z,99337.53
2022-11-19T18:11:22.847Z,99341.81
2022-11-19T18:13:56.009Z,99339.22
2022-11-19T18:16:27.439Z,99339.22
2022-11-19T18:18:57.399Z,99340.03
2022-11-19T18:21:29.199Z,99329.69
2022-11-19T18:24:00.572Z,99337.41
2022-11-19T18:26:38.694Z,99334.00
2022-11-19T18:29:09.367Z,99335.69
2022-11-19T18:31:45.526Z,99332.16
2022-11-19T18:34:25.463Z,99337.38
2022-11-19T18:36:55.130Z,99335.56
2022-11-19T18:39:25.419Z,99333.91
2022-11-19T18:41:55.278Z,99340.84
2022-11-19T18:44:35.240Z,99337.44
2022-11-19T18:47:12.397Z,99336.47
2022-11-19T18:49:42.708Z,99336.31
2022-11-19T18:52:15.841Z,99335.44
2022-11-19T18:54:46.047Z,99344.94
2022-11-19T18:57:14.149Z,99344.69
2022-11-19T18:59:42.367Z,99350.44
2022-11-19T19:02:13.041Z,99344.69
2022-11-19T19:04:48.332Z,99345.31
2022-11-19T19:07:22.218Z,99349.94
2022-11-19T19:09:52.888Z,99343.03
2022-11-19T19:12:21.960Z,99342.22
2022-11-19T19:14:56.663Z,99346.38
2022-11-19T19:17:26.306Z,99345.31
2022-11-19T19:19:58.540Z,99346.84
2022-11-19T19:22:32.121Z,99364.13
2022-11-19T19:25:02.728Z,99343.31
2022-11-19T19:27:38.807Z,99357.13
2022-11-19T19:30:06.839Z,99353.78
2022-11-19T19:32:40.410Z,99352.63
2022-11-19T19:35:08.158Z,99355.50
2022-11-19T19:37:43.318Z,99353.78
2022-11-19T19:40:11.968Z,99346.63
2022-11-19T19:42:41.409Z,99352.91
2022-11-19T19:45:10.698Z,99356.44
2022-11-19T19:47:37.959Z,99354.47
2022-11-19T19:50:06.046Z,99361.06
2022-11-19T19:52:33.727Z,99355.22
2022-11-19T19:55:03.061Z,99351.91
2022-11-19T19:57:31.366Z,99358.88
2022-11-19T20:00:01.721Z,99355.28
2022-11-19T20:02:30.958Z,99360.56
2022-11-19T20:05:00.598Z,99362.34
2022-11-19T20:07:33.059Z,99364.16
2022-11-19T20:10:07.888Z,99363.72
2022-11-19T20:12:54.808Z,99358.53
2022-11-19T20:15:30.376Z,99364.53
2022-11-19T20:18:00.415Z,99365.31
2022-11-19T20:20:28.695Z,99361.56
2022-11-19T20:22:59.998Z,99370.91
2022-11-19T20:25:30.702Z,99372.03
2022-11-19T20:28:01.357Z,99368.03
2022-11-19T20:30:33.215Z,99366.22
2022-11-19T20:33:04.738Z,99367.72
2022-11-19T20:35:37.358Z,99366.75
2022-11-19T20:38:08.423Z,99348.28
2022-11-19T20:40:39.849Z,99347.16
2022-11-19T20:43:31.641Z,99349.78
2022-11-19T20:46:13.038Z,99348.78
2022-11-19T20:48:44.135Z,99339.94
2022-11-19T20:51:15.058Z,99343.09
2022-11-19T20:53:46.059Z,99334.72
2022-11-19T20:56:17.865Z,99342.16
2022-11-19T20:58:48.480Z,99340.25
2022-11-19T21:01:16.526Z,99352.31
2022-11-19T21:03:46.247Z,99345.53
2022-11-19T21:06:14.805Z,99346.25
2022-11-19T21:08:42.399Z,99343.59
2022-11-19T21:11:12.448Z,99344.44
2022-11-19T21:13:40.957Z,99336.66
2022-11-19T21:16:20.071Z,99333.28
2022-11-19T21:18:47.958Z,99332.03
2022-11-19T21:21:17.038Z,99332.41
2022-11-19T21:23:46.597Z,99339.28
2022-11-19T21:26:14.618Z,99343.41
2022-11-19T21:28:44.801Z,99347.56
2022-11-19T21:31:16.365Z,99357.50
2022-11-19T21:33:49.975Z,99354.78
2022-11-19T21:36:17.838Z,99353.44
2022-11-19T21:38:45.277Z,99344.81
2022-11-19T21:41:13.047Z,99348.19
2022-11-19T21:43:41.168Z,99343.63
2022-11-19T21:46:08.767Z,99339.28
2022-11-19T21:48:39.363Z,99346.84
2022-11-19T21:51:09.079Z,99352.00
2022-11-19T21:53:36.687Z,99342.63
2022-11-19T21:56:04.409Z,99347.78
2022-11-19T21:58:31.798Z,99343.31
2022-11-19T22:01:04.601Z,99351.09
2022-11-19T22:03:33.569Z,99342.78
2022-11-19T22:06:09.758Z,99339.03
2022-11-19T22:08:40.277Z,99346.81
2022-11-19T22:11:27.438Z,99344.63
2022-11-19T22:13:59.198Z,99346.00
2022-11-19T22:16:27.762Z,99344.34
2022-11-19T22:18:55.277Z,99340.06
2022-11-19T22:21:22.758Z,99333.91
2022-11-19T22:24:00.062Z,99339.81
2022-11-19T22:26:27.679Z,99343.41
2022-11-19T22:28:56.838Z,99342.41
2022-11-19T22:31:25.295Z,99349.81
2022-11-19T22:33:54.105Z,99347.19
2022-11-19T22:36:22.562Z,99355.09
2022-11-19T22:38:51.639Z,99355.66
2022-11-19T22:41:21.159Z,99361.50
2022-11-19T22:43:49.518Z,99352.94
2022-11-19T22:46:17.878Z,99355.72
2022-11-19T22:48:45.319Z,99355.72
2022-11-19T22:51:21.958Z,99361.34
2022-11-19T22:53:51.799Z,99359.03
2022-11-19T22:56:22.319Z,99360.88
2022-11-19T22:58:50.208Z,99358.81
2022-11-19T23:01:17.854Z,99362.44
2022-11-19T23:03:47.766Z,99354.53
2022-11-19T23:06:15.806Z,99355.09
2022-11-19T23:08:44.492Z,99349.72
2022-11-19T23:11:13.717Z,99346.94
2022-11-19T23:13:42.998Z,99352.28
2022-11-19T23:16:14.049Z,99357.22
2022-11-19T23:18:47.038Z,99339.91
2022-11-19T23:21:15.854Z,99346.03
2022-11-19T23:23:43.478Z,99348.69
2022-11-19T23:26:21.720Z,99338.81
2022-11-19T23:28:49.518Z,99348.59
2022-11-19T23:31:31.941Z,99345.88
2022-11-19T23:34:06.369Z,99346.38
2022-11-19T23:36:37.131Z,99339.59
2022-11-19T23:39:05.719Z,99344.03
2022-11-19T23:41:34.637Z,99337.91
2022-11-19T23:44:03.160Z,99331.69
2022-11-19T23:46:37.045Z,99331.25
2022-11-19T23:49:05.895Z,99329.69
2022-11-19T23:51:40.408Z,99332.34
2022-11-19T23:54:08.757Z,99340.25
2022-11-19T23:56:36.618Z,99335.28
2022-11-19T23:59:06.730Z,99330.84
